Time;durP1;ratioP1;P1;durP2;ratioP2;P2;SDS_P1;SDS_P2;PMS_P1;PMS_P2;Temp;Humidity;BMP_temperature;BMP_pressure;BME280_temperature;BME280_humidity;BME280_pressure;Samples;Min_cycle;Max_cycle;Signal;HPM_P1;HPM_P2
2022/07/27 00:00:08;;;;;;;2.80;2.22;;;25.50;64.00;;;;;;4992386;28;20422;-69
2022/07/27 00:02:33;;;;;;;2.50;2.30;;;25.50;63.90;;;;;;4992692;28;20386;-69
2022/07/27 00:04:59;;;;;;;2.40;2.20;;;25.50;63.90;;;;;;4991447;28;20410;-69
2022/07/27 00:07:25;;;;;;;2.40;2.20;;;25.50;64.00;;;;;;4990973;28;20402;-69
2022/07/27 00:09:50;;;;;;;2.63;2.13;;;25.50;63.80;;;;;;4992346;28;20465;-69
2022/07/27 00:12:16;;;;;;;2.57;2.20;;;25.50;63.90;;;;;;4992568;28;20498;-69
2022/07/27 00:14:41;;;;;;;2.37;2.17;;;25.50;64.00;;;;;;4992475;28;20398;-70
2022/07/27 00:17:07;;;;;;;2.20;2.00;;;25.50;63.90;;;;;;4992772;28;20884;-69
2022/07/27 00:19:33;;;;;;;2.47;2.10;;;25.50;64.00;;;;;;4992105;28;20426;-69
2022/07/27 00:21:59;;;;;;;2.57;2.20;;;25.50;63.90;;;;;;4993164;28;20976;-69
2022/07/27 00:24:24;;;;;;;2.33;2.13;;;25.50;63.90;;;;;;4992312;28;20401;-70
2022/07/27 00:26:50;;;;;;;2.15;1.95;;;25.50;63.80;;;;;;4991789;28;20426;-70
2022/07/27 00:29:16;;;;;;;2.60;2.00;;;25.50;63.90;;;;;;4993780;28;20410;-69
2022/07/27 00:31:41;;;;;;;2.30;2.05;;;25.40;63.70;;;;;;4993954;28;20881;-69
2022/07/27 00:34:07;;;;;;;2.30;2.00;;;25.50;63.80;;;;;;4992135;28;20472;-69
2022/07/27 00:36:33;;;;;;;2.53;2.33;;;25.50;63.80;;;;;;4992015;28;20410;-70
2022/07/27 00:38:59;;;;;;;2.50;2.30;;;25.50;63.70;;;;;;4991842;28;20403;-70
2022/07/27 00:41:24;;;;;;;2.40;2.20;;;25.50;64.40;;;;;;4991331;28;20409;-70
2022/07/27 00:43:55;;;;;;;2.92;2.20;;;25.50;63.80;;;;;;4991154;28;20402;-69
2022/07/27 00:46:22;;;;;;;2.40;2.20;;;25.40;63.60;;;;;;4970557;28;20408;-69
2022/07/27 00:48:48;;;;;;;2.70;2.13;;;25.50;63.80;;;;;;4990842;28;20418;-70
2022/07/27 00:51:16;;;;;;;2.30;2.10;;;25.50;63.70;;;;;;4992272;28;20395;-70
2022/07/27 00:53:42;;;;;;;3.10;2.08;;;25.50;63.70;;;;;;4991450;28;20788;-69
2022/07/27 00:56:08;;;;;;;2.97;2.03;;;25.40;63.70;;;;;;4991628;28;20407;-69
2022/07/27 00:58:35;;;;;;;2.22;2.00;;;25.40;63.60;;;;;;4990241;28;20429;-69
2022/07/27 01:01:01;;;;;;;2.17;1.90;;;25.40;63.70;;;;;;4990214;28;20504;-70
2022/07/27 01:03:27;;;;;;;2.20;2.00;;;25.40;63.70;;;;;;4991157;28;20990;-69
2022/07/27 01:05:54;;;;;;;2.33;2.13;;;25.40;63.70;;;;;;4991434;28;20944;-69
2022/07/27 01:08:19;;;;;;;2.33;1.98;;;25.40;63.60;;;;;;4991585;28;20445;-69
2022/07/27 01:10:47;;;;;;;2.25;2.03;;;25.40;63.60;;;;;;4990229;28;20776;-69
2022/07/27 01:13:15;;;;;;;2.50;2.30;;;25.40;63.60;;;;;;4991119;28;20445;-69
2022/07/27 01:15:42;;;;;;;2.38;2.05;;;25.40;63.70;;;;;;4989780;28;20402;-70
2022/07/27 01:18:12;;;;;;;2.63;2.17;;;25.40;63.60;;;;;;4989905;28;20398;-70
2022/07/27 01:20:40;;;;;;;2.40;2.20;;;25.40;63.60;;;;;;4989167;28;20493;-69
2022/07/27 01:23:05;;;;;;;2.75;2.30;;;25.40;63.60;;;;;;4991263;28;20938;-69
2022/07/27 01:25:32;;;;;;;2.42;2.00;;;25.40;63.60;;;;;;4990626;28;20430;-69
2022/07/27 01:27:57;;;;;;;2.20;2.00;;;25.40;63.60;;;;;;4989249;28;20426;-69
2022/07/27 01:30:25;;;;;;;2.50;2.30;;;25.40;63.50;;;;;;4991089;28;20421;-69
2022/07/27 01:32:59;;;;;;;2.60;2.40;;;25.30;64.00;;;;;;4990980;28;20390;-69
2022/07/27 01:35:24;;;;;;;2.22;2.03;;;25.40;63.50;;;;;;4989360;28;20411;-69
2022/07/27 01:37:50;;;;;;;2.50;2.30;;;25.30;63.30;;;;;;4989510;28;20473;-69
2022/07/27 01:40:16;;;;;;;2.60;2.20;;;25.40;63.40;;;;;;4990963;28;20536;-69
2022/07/27 01:42:41;;;;;;;2.30;2.10;;;25.40;63.50;;;;;;4989567;28;20541;-70
2022/07/27 01:45:07;;;;;;;2.60;2.40;;;25.30;63.30;;;;;;4990843;28;20421;-69
2022/07/27 01:47:33;;;;;;;2.38;2.10;;;25.30;63.30;;;;;;4989142;28;20413;-70
2022/07/27 01:49:59;;;;;;;2.40;2.20;;;25.30;63.40;;;;;;4989264;28;20411;-69
2022/07/27 01:52:24;;;;;;;2.45;2.20;;;25.30;63.40;;;;;;4990502;28;20465;-69
2022/07/27 01:54:50;;;;;;;2.25;2.05;;;25.30;63.30;;;;;;4990180;28;20394;-69
2022/07/27 01:57:16;;;;;;;2.37;2.17;;;25.30;63.30;;;;;;4990229;28;20406;-69
2022/07/27 01:59:41;;;;;;;2.20;2.00;;;25.30;63.40;;;;;;4988891;28;20789;-69
2022/07/27 02:02:07;;;;;;;2.42;2.22;;;25.30;63.40;;;;;;4990445;28;20398;-70
2022/07/27 02:04:32;;;;;;;2.43;2.20;;;25.30;63.30;;;;;;4989184;28;20410;-69
2022/07/27 02:06:58;;;;;;;2.73;2.47;;;25.30;63.30;;;;;;4990440;28;20458;-69
2022/07/27 02:09:24;;;;;;;2.70;2.50;;;25.30;63.30;;;;;;4990061;28;20760;-69
2022/07/27 02:14:34;;;;;;;2.35;2.15;;;25.30;63.30;;;;;;4990304;28;20402;-70
2022/07/27 02:17:00;;;;;;;2.97;2.50;;;25.30;63.20;;;;;;4990426;28;21017;-69
2022/07/27 02:19:27;;;;;;;2.65;2.30;;;25.30;63.20;;;;;;4989865;28;20525;-69
2022/07/27 02:21:53;;;;;;;2.70;2.50;;;25.30;63.20;;;;;;4990207;28;20397;-69
2022/07/27 02:24:19;;;;;;;3.53;2.30;;;25.30;63.20;;;;;;4990352;28;20951;-69
2022/07/27 02:26:45;;;;;;;2.45;2.17;;;25.30;63.20;;;;;;4990077;28;20553;-69
2022/07/27 02:29:10;;;;;;;2.22;2.00;;;25.30;63.30;;;;;;4990283;28;20422;-69
2022/07/27 02:31:36;;;;;;;2.63;2.10;;;25.30;63.30;;;;;;4990176;28;20379;-69
2022/07/27 02:34:02;;;;;;;3.10;2.60;;;25.30;63.20;;;;;;4972883;28;20392;-69
2022/07/27 02:36:28;;;;;;;2.53;2.17;;;25.30;63.20;;;;;;4972639;28;20392;-69
2022/07/27 02:38:54;;;;;;;4.20;2.53;;;25.30;63.30;;;;;;4971187;28;20470;-69
2022/07/27 02:41:20;;;;;;;2.50;2.28;;;25.30;63.70;;;;;;4971080;28;20408;-69
2022/07/27 02:43:45;;;;;;;2.80;2.50;;;25.30;63.20;;;;;;4972194;28;20489;-69
2022/07/27 02:46:11;;;;;;;3.50;2.37;;;25.30;63.20;;;;;;4972364;28;20403;-69
2022/07/27 02:48:37;;;;;;;2.70;2.40;;;25.30;63.20;;;;;;4972516;28;20388;-69
2022/07/27 02:51:03;;;;;;;2.60;2.35;;;25.20;63.20;;;;;;4972444;28;20894;-69
2022/07/27 02:53:29;;;;;;;2.80;2.30;;;25.20;63.00;;;;;;4970818;28;20439;-69
2022/07/27 02:55:55;;;;;;;2.80;2.50;;;25.20;63.00;;;;;;4971779;28;20432;-69
2022/07/27 02:58:21;;;;;;;2.80;2.30;;;25.20;63.10;;;;;;4972597;28;20451;-69
2022/07/27 03:00:47;;;;;;;2.53;2.33;;;25.30;63.10;;;;;;4972362;28;20944;-69
2022/07/27 03:03:13;;;;;;;2.70;2.50;;;25.30;63.10;;;;;;4971317;28;20487;-69
2022/07/27 03:05:38;;;;;;;2.60;2.40;;;25.30;63.20;;;;;;4971683;28;20499;-69
2022/07/27 03:08:04;;;;;;;3.07;2.33;;;25.20;63.30;;;;;;4972203;28;20477;-68
2022/07/27 03:10:31;;;;;;;2.67;2.13;;;25.20;64.50;;;;;;4975797;28;20941;-68
2022/07/27 03:12:56;;;;;;;3.80;2.65;;;25.30;63.90;;;;;;4974690;28;20403;-68
2022/07/27 03:15:23;;;;;;;5.05;2.70;;;25.30;65.40;;;;;;4975665;28;20388;-68
2022/07/27 03:17:48;;;;;;;4.80;2.70;;;25.30;66.40;;;;;;4976134;28;20436;-68
2022/07/27 03:20:14;;;;;;;4.93;2.60;;;25.30;67.10;;;;;;4976120;28;20782;-68
2022/07/27 03:22:40;;;;;;;5.13;2.80;;;25.40;67.00;;;;;;4975895;28;20513;-69
2022/07/27 03:25:06;;;;;;;3.10;2.70;;;25.40;67.20;;;;;;4976023;28;20399;-68
2022/07/27 03:27:32;;;;;;;3.95;2.58;;;25.40;66.80;;;;;;4975360;28;20404;-68
2022/07/27 03:29:58;;;;;;;3.80;2.47;;;25.50;67.00;;;;;;4974624;28;20408;-70
2022/07/27 03:32:23;;;;;;;3.77;2.37;;;25.50;66.90;;;;;;4975626;28;20432;-70
2022/07/27 03:34:49;;;;;;;3.50;2.78;;;25.50;66.70;;;;;;4974309;28;20419;-69
2022/07/27 03:37:16;;;;;;;5.60;2.80;;;25.50;66.70;;;;;;4990979;28;20413;-68
2022/07/27 03:39:41;;;;;;;4.60;2.80;;;25.50;65.90;;;;;;4993818;28;20426;-68
2022/07/27 03:42:07;;;;;;;5.28;2.80;;;25.50;65.50;;;;;;4994335;28;20400;-68
2022/07/27 03:44:33;;;;;;;4.37;2.70;;;25.50;65.90;;;;;;4994336;28;20525;-70
2022/07/27 03:46:58;;;;;;;6.90;3.03;;;25.40;65.00;;;;;;4992896;28;20445;-69
2022/07/27 03:49:24;;;;;;;3.73;2.93;;;25.40;64.50;;;;;;4994250;28;20406;-69
2022/07/27 03:51:50;;;;;;;6.57;3.10;;;25.30;64.30;;;;;;4994402;28;20449;-68
2022/07/27 03:54:16;;;;;;;5.45;3.00;;;25.30;64.00;;;;;;4992967;28;20395;-68
2022/07/27 03:56:43;;;;;;;8.70;3.22;;;25.30;63.60;;;;;;4994361;28;20391;-68
2022/07/27 03:59:08;;;;;;;6.82;3.10;;;25.30;63.20;;;;;;4993070;28;20493;-69
2022/07/27 04:01:34;;;;;;;7.27;3.10;;;25.30;63.30;;;;;;4992760;28;20498;-69
2022/07/27 04:04:00;;;;;;;8.35;2.95;;;25.30;62.80;;;;;;4993211;28;20423;-69
2022/07/27 04:06:26;;;;;;;7.83;3.20;;;25.30;62.50;;;;;;4994134;28;20399;-69
2022/07/27 04:08:52;;;;;;;6.72;2.90;;;25.20;62.00;;;;;;4993127;28;20493;-69
2022/07/27 04:11:17;;;;;;;6.97;3.03;;;25.20;61.70;;;;;;4994363;28;20777;-68
2022/07/27 04:13:45;;;;;;;5.43;2.83;;;25.20;61.70;;;;;;4992428;28;20813;-69
2022/07/27 04:16:11;;;;;;;6.80;2.83;;;25.20;62.00;;;;;;4994352;28;20397;-69
2022/07/27 04:18:36;;;;;;;5.20;3.00;;;25.20;61.80;;;;;;4994278;28;20426;-68
2022/07/27 04:21:05;;;;;;;7.20;3.40;;;25.10;61.50;;;;;;4993240;28;20461;-69
2022/07/27 04:23:34;;;;;;;5.63;3.20;;;25.10;61.10;;;;;;4994554;28;20453;-69
2022/07/27 04:25:59;;;;;;;4.78;2.97;;;25.10;61.00;;;;;;4995813;28;20391;-69
2022/07/27 04:28:25;;;;;;;4.65;3.08;;;25.00;61.00;;;;;;4994023;28;20758;-70
2022/07/27 04:30:51;;;;;;;4.43;2.97;;;25.00;60.90;;;;;;4994264;28;20386;-69
2022/07/27 04:33:17;;;;;;;6.20;3.00;;;25.00;61.20;;;;;;4994148;28;20753;-70
2022/07/27 04:35:42;;;;;;;4.73;2.90;;;25.00;61.00;;;;;;4994368;28;20405;-69
2022/07/27 04:38:08;;;;;;;6.95;3.20;;;25.00;60.90;;;;;;4993828;28;20387;-70
2022/07/27 04:40:34;;;;;;;5.37;3.30;;;25.00;60.80;;;;;;4993830;28;20405;-70
2022/07/27 04:43:02;;;;;;;6.22;3.45;;;24.90;60.90;;;;;;4992570;28;20425;-70
2022/07/27 04:45:27;;;;;;;15.27;4.03;;;24.90;60.80;;;;;;4993545;28;20398;-69
2022/07/27 04:47:53;;;;;;;11.27;3.40;;;24.90;60.80;;;;;;4993083;28;20406;-70
2022/07/27 04:50:19;;;;;;;10.07;3.20;;;24.90;60.80;;;;;;4992535;28;20398;-70
2022/07/27 04:52:44;;;;;;;9.77;3.70;;;24.90;60.80;;;;;;4992390;28;20490;-70
2022/07/27 04:55:10;;;;;;;6.50;3.35;;;24.80;60.70;;;;;;4992363;28;20406;-70
2022/07/27 04:57:36;;;;;;;4.72;3.38;;;24.80;61.40;;;;;;4993015;28;20391;-69
2022/07/27 05:00:03;;;;;;;6.17;3.20;;;24.80;60.80;;;;;;4993345;28;20481;-70
2022/07/27 05:02:30;;;;;;;5.43;3.58;;;24.80;60.80;;;;;;4993421;28;20386;-70
2022/07/27 05:04:58;;;;;;;5.57;3.20;;;24.80;60.90;;;;;;4993903;28;20390;-69
2022/07/27 05:07:24;;;;;;;3.57;3.10;;;24.80;60.90;;;;;;4993721;28;20397;-69
2022/07/27 05:09:49;;;;;;;5.93;3.55;;;24.70;61.00;;;;;;4991784;28;20398;-69
2022/07/27 05:12:15;;;;;;;6.90;3.40;;;24.70;61.00;;;;;;4993237;28;20972;-70
2022/07/27 05:14:41;;;;;;;6.00;3.28;;;24.70;61.30;;;;;;4993403;28;20399;-70
2022/07/27 05:17:06;;;;;;;7.78;3.25;;;24.70;61.40;;;;;;4993152;28;20789;-69
2022/07/27 05:19:32;;;;;;;6.40;3.47;;;24.70;61.30;;;;;;4992611;28;20465;-69
2022/07/27 05:21:59;;;;;;;6.28;3.70;;;24.70;61.40;;;;;;4992899;28;20768;-69
2022/07/27 05:24:25;;;;;;;5.80;3.45;;;24.60;61.10;;;;;;4992848;28;20800;-69
2022/07/27 05:26:50;;;;;;;4.07;3.20;;;24.60;61.30;;;;;;4993097;28;20479;-69
2022/07/27 05:29:16;;;;;;;4.93;3.20;;;24.60;61.20;;;;;;4992811;28;20410;-68
2022/07/27 05:31:42;;;;;;;6.15;3.30;;;24.60;61.40;;;;;;4992076;28;20745;-69
2022/07/27 05:34:07;;;;;;;4.00;3.00;;;24.60;61.40;;;;;;4992744;28;20394;-68
2022/07/27 05:36:33;;;;;;;6.10;3.30;;;24.60;60.80;;;;;;4992747;28;20395;-68
2022/07/27 05:38:59;;;;;;;3.97;2.97;;;24.60;61.10;;;;;;4992594;28;20422;-68
2022/07/27 05:41:25;;;;;;;4.88;3.20;;;24.60;61.10;;;;;;4992509;28;20393;-68
2022/07/27 05:43:53;;;;;;;3.53;2.90;;;24.60;61.00;;;;;;4992382;28;20501;-68
2022/07/27 05:46:19;;;;;;;5.43;3.20;;;24.60;60.70;;;;;;4992705;28;20418;-68
2022/07/27 05:48:45;;;;;;;3.90;2.90;;;24.60;60.80;;;;;;4992322;28;20402;-68
2022/07/27 05:51:10;;;;;;;3.63;2.67;;;24.70;60.80;;;;;;4992390;28;20401;-68
2022/07/27 05:53:36;;;;;;;3.53;2.83;;;24.60;60.70;;;;;;4992073;28;20401;-68
2022/07/27 05:56:02;;;;;;;4.10;2.95;;;24.70;60.80;;;;;;4992363;28;20390;-68
2022/07/27 05:58:28;;;;;;;3.93;2.97;;;24.60;60.80;;;;;;4992284;28;20448;-67
2022/07/27 06:00:55;;;;;;;3.00;2.70;;;24.70;60.80;;;;;;4992597;28;20756;-68
2022/07/27 06:03:21;;;;;;;4.30;2.90;;;24.70;60.70;;;;;;4992012;28;20393;-68
2022/07/27 06:05:47;;;;;;;3.80;3.03;;;24.70;60.70;;;;;;4991934;28;20394;-68
2022/07/27 06:08:13;;;;;;;3.88;2.70;;;24.60;60.70;;;;;;4992328;28;20386;-68
2022/07/27 06:10:39;;;;;;;4.28;3.00;;;24.70;60.70;;;;;;4992286;28;20390;-68
2022/07/27 06:13:07;;;;;;;3.25;2.60;;;24.70;60.70;;;;;;4992139;28;20437;-68
2022/07/27 06:15:34;;;;;;;3.17;2.80;;;24.70;60.90;;;;;;4990503;28;20402;-68
2022/07/27 06:18:02;;;;;;;3.63;2.70;;;24.70;60.80;;;;;;4992077;28;20474;-68
2022/07/27 06:20:29;;;;;;;3.42;2.65;;;24.70;60.80;;;;;;4990836;28;20958;-68
2022/07/27 06:23:04;;;;;;;3.53;2.80;;;24.70;60.80;;;;;;4990896;28;20398;-68
2022/07/27 06:25:33;;;;;;;3.47;2.80;;;24.70;61.10;;;;;;4990443;28;20831;-68
2022/07/27 06:27:59;;;;;;;3.85;2.85;;;24.70;61.20;;;;;;4992033;28;20406;-68
2022/07/27 06:30:24;;;;;;;3.40;2.80;;;24.70;61.30;;;;;;4990868;28;20406;-68
2022/07/27 06:32:50;;;;;;;4.25;2.70;;;24.70;61.10;;;;;;4991953;28;20757;-68
2022/07/27 06:35:16;;;;;;;3.20;2.90;;;24.70;61.10;;;;;;4992322;28;20481;-68
2022/07/27 06:37:42;;;;;;;3.20;2.80;;;24.70;61.20;;;;;;4991486;28;20391;-68
2022/07/27 06:40:11;;;;;;;3.30;3.00;;;24.70;61.50;;;;;;4991851;28;20421;-68
2022/07/27 06:42:37;;;;;;;3.10;2.78;;;24.70;61.60;;;;;;4992331;28;20398;-68
2022/07/27 06:45:03;;;;;;;3.00;2.70;;;24.70;61.60;;;;;;4995973;28;20390;-68
2022/07/27 06:47:29;;;;;;;3.35;2.80;;;24.70;61.70;;;;;;4995712;28;20386;-68
2022/07/27 06:49:54;;;;;;;3.30;2.67;;;24.70;61.70;;;;;;4995432;28;20404;-68
2022/07/27 06:52:20;;;;;;;3.53;2.80;;;24.70;61.80;;;;;;4995114;28;20482;-68
2022/07/27 06:54:46;;;;;;;2.90;2.65;;;24.70;61.80;;;;;;4995768;28;20398;-68
2022/07/27 06:57:12;;;;;;;3.50;2.83;;;24.70;61.90;;;;;;4995750;28;20418;-68
2022/07/27 06:59:38;;;;;;;3.13;2.83;;;24.70;61.90;;;;;;4995178;28;20508;-68
2022/07/27 07:02:04;;;;;;;3.60;2.83;;;24.70;62.50;;;;;;4995701;28;20486;-68
2022/07/27 07:04:31;;;;;;;3.05;2.67;;;24.70;61.90;;;;;;4995715;28;20814;-68
2022/07/27 07:06:59;;;;;;;3.00;2.60;;;24.70;61.90;;;;;;4995579;28;20916;-68
2022/07/27 07:09:28;;;;;;;3.10;2.63;;;24.70;62.00;;;;;;4995652;28;20430;-68
2022/07/27 07:11:55;;;;;;;2.63;2.40;;;24.70;61.90;;;;;;4993456;28;20395;-68
2022/07/27 07:14:21;;;;;;;3.13;2.60;;;24.70;62.00;;;;;;4994422;28;20402;-69
2022/07/27 07:16:47;;;;;;;3.08;2.85;;;24.70;62.00;;;;;;4994568;28;20417;-68
2022/07/27 07:19:13;;;;;;;3.22;2.67;;;24.70;62.00;;;;;;4994016;28;20904;-68
2022/07/27 07:21:39;;;;;;;2.85;2.55;;;24.70;62.00;;;;;;4994850;28;20889;-68
2022/07/27 07:24:05;;;;;;;2.90;2.60;;;24.70;61.90;;;;;;4994123;28;20452;-69
2022/07/27 07:26:31;;;;;;;4.20;2.70;;;24.70;61.90;;;;;;4994554;28;20480;-68
2022/07/27 07:28:57;;;;;;;3.60;2.55;;;24.70;62.00;;;;;;4995228;28;20433;-68
2022/07/27 07:31:23;;;;;;;3.37;2.83;;;24.70;62.50;;;;;;4995176;28;20391;-68
2022/07/27 07:33:49;;;;;;;6.45;3.00;;;24.80;64.40;;;;;;4994495;28;20437;-67
2022/07/27 07:36:14;;;;;;;6.20;2.90;;;24.80;63.70;;;;;;4994669;28;20399;-68
2022/07/27 07:38:42;;;;;;;5.50;2.92;;;24.80;63.90;;;;;;4994510;28;20463;-68
2022/07/27 07:41:07;;;;;;;7.03;2.70;;;24.80;63.10;;;;;;4994959;28;20399;-67
2022/07/27 07:43:35;;;;;;;5.47;2.80;;;24.80;63.70;;;;;;4994607;28;20391;-68
2022/07/27 07:46:01;;;;;;;5.95;2.80;;;24.90;63.40;;;;;;4994682;28;20395;-68
2022/07/27 07:48:27;;;;;;;4.80;3.00;;;24.90;62.80;;;;;;4993560;28;20394;-69
2022/07/27 07:50:52;;;;;;;4.17;2.93;;;24.90;63.80;;;;;;4994416;28;20881;-68
2022/07/27 07:53:22;;;;;;;4.40;2.95;;;24.90;63.80;;;;;;4994828;28;20391;-68
2022/07/27 07:55:48;;;;;;;3.97;2.75;;;25.00;63.70;;;;;;4992849;28;20410;-68
2022/07/27 07:58:13;;;;;;;4.63;2.87;;;25.00;63.40;;;;;;4994572;28;20457;-69
2022/07/27 08:00:40;;;;;;;4.20;2.80;;;25.00;62.90;;;;;;4993313;28;20440;-68
2022/07/27 08:03:06;;;;;;;4.97;2.90;;;25.00;63.60;;;;;;4994482;28;20402;-68
2022/07/27 08:05:32;;;;;;;4.20;2.83;;;25.00;63.60;;;;;;4993313;28;20991;-69
2022/07/27 08:07:57;;;;;;;4.60;2.90;;;25.00;63.70;;;;;;4992690;28;20402;-68
2022/07/27 08:10:23;;;;;;;4.43;2.92;;;25.00;63.70;;;;;;4988768;28;20454;-68
2022/07/27 08:12:52;;;;;;;4.67;2.70;;;25.00;64.00;;;;;;4986259;28;20991;-68
2022/07/27 08:15:19;;;;;;;4.68;2.80;;;25.00;63.60;;;;;;4991855;28;20395;-68
2022/07/27 08:17:45;;;;;;;6.80;2.90;;;25.00;63.70;;;;;;4991440;28;20403;-68
2022/07/27 08:20:13;;;;;;;5.50;2.85;;;25.00;63.70;;;;;;4991848;28;20434;-68
2022/07/27 08:22:39;;;;;;;4.90;2.90;;;25.00;63.60;;;;;;4993380;28;20406;-68
2022/07/27 08:25:06;;;;;;;6.10;2.80;;;25.00;63.80;;;;;;4993190;28;20386;-67
2022/07/27 08:27:32;;;;;;;4.72;2.63;;;25.10;63.40;;;;;;4992837;28;20905;-68
2022/07/27 08:29:57;;;;;;;5.43;2.88;;;25.00;63.20;;;;;;4992411;28;20410;-67
2022/07/27 08:32:24;;;;;;;4.20;2.70;;;25.00;63.10;;;;;;4990152;28;20422;-68
2022/07/27 08:34:50;;;;;;;5.38;2.80;;;25.00;63.00;;;;;;4992728;28;20402;-68
2022/07/27 08:37:16;;;;;;;3.40;2.70;;;25.00;63.00;;;;;;4992745;28;20996;-67
2022/07/27 08:39:42;;;;;;;4.88;2.78;;;25.00;62.90;;;;;;4991091;28;20462;-69
2022/07/27 08:42:09;;;;;;;3.93;2.63;;;25.00;62.90;;;;;;4993841;28;20557;-69
2022/07/27 08:44:38;;;;;;;4.05;2.72;;;25.00;62.80;;;;;;4993882;28;20844;-67
2022/07/27 08:47:04;;;;;;;5.90;2.60;;;25.00;62.90;;;;;;4993698;28;20387;-68
2022/07/27 08:49:31;;;;;;;3.53;2.80;;;25.00;62.90;;;;;;4993339;28;20405;-67
2022/07/27 08:51:57;;;;;;;4.07;2.60;;;25.00;63.00;;;;;;4992472;28;20398;-68
2022/07/27 08:54:26;;;;;;;8.65;3.20;;;25.00;63.00;;;;;;4993530;28;20398;-68
2022/07/27 08:56:52;;;;;;;7.43;3.17;;;25.00;64.10;;;;;;4993297;28;20387;-68
2022/07/27 08:59:18;;;;;;;4.55;2.78;;;25.00;63.80;;;;;;4993511;28;20427;-68
2022/07/27 09:01:43;;;;;;;5.97;2.83;;;25.00;63.10;;;;;;4992540;28;20387;-68
2022/07/27 09:04:10;;;;;;;5.10;2.80;;;25.00;63.10;;;;;;4993234;28;20426;-68
2022/07/27 09:06:40;;;;;;;5.63;2.80;;;25.00;62.90;;;;;;4990783;28;20410;-68
2022/07/27 09:09:06;;;;;;;4.10;2.67;;;25.00;63.40;;;;;;4992860;28;20457;-68
2022/07/27 09:11:31;;;;;;;4.27;2.80;;;25.00;62.70;;;;;;4992840;28;20390;-68
2022/07/27 09:14:02;;;;;;;3.30;2.70;;;25.00;62.80;;;;;;4991219;28;20490;-67
2022/07/27 09:16:30;;;;;;;3.50;2.60;;;25.00;62.70;;;;;;4993361;28;20469;-68
2022/07/27 09:19:08;;;;;;;4.30;2.80;;;25.00;62.70;;;;;;4990001;28;20453;-68
2022/07/27 09:21:36;;;;;;;4.95;2.80;;;25.00;62.60;;;;;;4991310;28;20915;-68
2022/07/27 09:24:11;;;;;;;3.83;2.78;;;25.00;62.60;;;;;;4983441;28;20396;-68
2022/07/27 09:26:37;;;;;;;4.70;2.53;;;25.00;62.60;;;;;;4985257;28;20417;-68
2022/07/27 09:29:09;;;;;;;3.78;2.80;;;25.00;62.60;;;;;;4986118;28;20877;-67
2022/07/27 09:31:50;;;;;;;3.22;2.80;;;25.00;62.50;;;;;;4983032;28;20807;-68
2022/07/27 09:34:30;;;;;;;4.53;3.08;;;25.00;62.60;;;;;;4988531;28;20399;-67
2022/07/27 09:36:57;;;;;;;3.53;2.60;;;25.00;62.60;;;;;;4991172;28;20395;-67
2022/07/27 09:39:25;;;;;;;3.47;2.70;;;25.00;62.50;;;;;;4992138;28;20932;-67
2022/07/27 09:42:00;;;;;;;4.03;2.70;;;25.00;62.60;;;;;;4992016;28;20398;-68
2022/07/27 09:44:36;;;;;;;4.45;2.60;;;25.00;62.50;;;;;;4991227;28;20445;-67
2022/07/27 09:47:26;;;;;;;2.92;2.42;;;25.00;62.50;;;;;;4992477;28;20398;-68
2022/07/27 09:50:18;;;;;;;4.15;2.88;;;25.00;62.60;;;;;;4991309;28;20370;-68
2022/07/27 09:52:45;;;;;;;3.00;2.55;;;25.00;62.50;;;;;;4986332;28;20948;-67
2022/07/27 09:55:10;;;;;;;3.63;2.47;;;25.00;62.50;;;;;;4992217;28;20403;-69
2022/07/27 09:57:56;;;;;;;3.70;2.53;;;24.90;62.50;;;;;;4992929;28;20469;-69
2022/07/27 10:00:23;;;;;;;3.60;2.60;;;24.90;62.40;;;;;;4981291;28;20422;-69
2022/07/27 10:02:51;;;;;;;3.20;2.90;;;24.90;62.40;;;;;;4986047;28;20913;-68
2022/07/27 10:05:20;;;;;;;4.60;2.92;;;24.90;62.50;;;;;;4990202;28;20409;-69
2022/07/27 10:07:46;;;;;;;3.40;2.70;;;24.90;62.50;;;;;;4987580;28;20422;-68
2022/07/27 10:10:13;;;;;;;3.63;2.70;;;24.90;62.40;;;;;;4990784;28;20780;-67
2022/07/27 10:12:41;;;;;;;5.43;2.67;;;24.90;62.50;;;;;;4990732;28;20402;-67
2022/07/27 10:15:08;;;;;;;8.90;3.33;;;25.00;62.70;;;;;;4992168;28;20742;-69
2022/07/27 10:17:36;;;;;;;8.77;3.78;;;25.00;63.10;;;;;;4989778;28;20801;-68
2022/07/27 10:20:09;;;;;;;10.43;3.65;;;25.10;62.90;;;;;;4991148;28;20505;-68
2022/07/27 10:22:55;;;;;;;18.17;4.30;;;25.00;62.80;;;;;;4991777;28;20892;-67
2022/07/27 10:25:24;;;;;;;22.40;5.20;;;25.00;62.60;;;;;;4989408;28;20456;-68
2022/07/27 10:28:15;;;;;;;14.70;4.28;;;25.00;62.50;;;;;;4991041;28;20452;-67
2022/07/27 10:30:41;;;;;;;13.07;4.30;;;25.00;62.50;;;;;;4972745;28;20468;-67
2022/07/27 10:33:43;;;;;;;12.98;4.00;;;25.00;62.50;;;;;;4972542;28;20825;-67
2022/07/27 10:36:18;;;;;;;14.60;4.30;;;25.00;62.50;;;;;;4972423;28;20870;-67
2022/07/27 10:38:46;;;;;;;12.35;3.97;;;25.00;62.50;;;;;;4971193;28;20420;-67
2022/07/27 10:41:28;;;;;;;11.57;3.90;;;25.00;62.50;;;;;;4971220;28;20802;-67
2022/07/27 10:44:21;;;;;;;11.57;4.10;;;25.00;62.50;;;;;;4971907;28;20392;-67
2022/07/27 10:47:02;;;;;;;12.52;4.00;;;25.00;62.50;;;;;;4972405;28;20423;-67
2022/07/27 10:49:31;;;;;;;7.88;3.72;;;25.00;62.50;;;;;;4972289;28;20479;-68
2022/07/27 10:51:57;;;;;;;7.20;3.40;;;25.00;62.50;;;;;;4971534;28;20388;-67
2022/07/27 10:54:26;;;;;;;8.73;3.60;;;25.00;62.50;;;;;;4971428;28;20759;-68
2022/07/27 10:56:54;;;;;;;8.10;3.78;;;25.00;62.50;;;;;;4972349;28;20392;-67
2022/07/27 10:59:38;;;;;;;7.10;3.63;;;25.00;62.50;;;;;;4972309;28;20420;-67
2022/07/27 11:02:09;;;;;;;6.82;3.60;;;25.00;62.50;;;;;;4971839;28;20404;-67
2022/07/27 11:04:44;;;;;;;7.50;3.60;;;25.00;62.40;;;;;;4970918;28;20463;-67
2022/07/27 11:07:10;;;;;;;6.53;3.40;;;25.00;62.50;;;;;;4972362;28;20432;-67
2022/07/27 11:09:39;;;;;;;7.65;3.78;;;25.00;62.40;;;;;;4972261;28;20435;-67
2022/07/27 11:12:07;;;;;;;8.70;3.60;;;25.00;62.40;;;;;;4971573;28;20399;-67
2022/07/27 11:15:03;;;;;;;6.90;3.63;;;25.00;62.30;;;;;;4970940;28;20769;-67
2022/07/27 11:17:29;;;;;;;9.68;3.97;;;25.00;62.30;;;;;;4962714;28;20759;-68
2022/07/27 11:19:57;;;;;;;8.23;3.83;;;25.00;62.40;;;;;;4971318;28;20451;-67
2022/07/27 11:22:32;;;;;;;6.57;3.63;;;25.00;62.30;;;;;;4970262;28;20539;-67
2022/07/27 11:24:58;;;;;;;8.65;4.20;;;25.00;62.10;;;;;;4971974;28;20407;-67
2022/07/27 11:27:25;;;;;;;7.60;3.55;;;25.00;62.00;;;;;;4970657;28;20405;-68
2022/07/27 11:29:51;;;;;;;5.60;3.42;;;25.00;62.00;;;;;;4972571;28;20396;-68
2022/07/27 11:32:18;;;;;;;6.45;3.50;;;25.00;62.10;;;;;;4975021;28;20396;-68
2022/07/27 11:34:45;;;;;;;4.50;3.22;;;25.00;62.10;;;;;;4975688;28;20399;-67
2022/07/27 11:37:19;;;;;;;5.00;3.17;;;25.00;62.10;;;;;;4975634;28;20389;-67
2022/07/27 11:39:56;;;;;;;5.95;3.67;;;25.00;62.00;;;;;;4990407;28;20507;-67
2022/07/27 11:42:22;;;;;;;4.32;2.95;;;25.10;62.10;;;;;;4975378;28;20396;-68
2022/07/27 11:44:48;;;;;;;5.37;3.37;;;25.00;62.10;;;;;;4975231;28;20759;-67
2022/07/27 11:47:18;;;;;;;4.25;3.00;;;25.00;62.10;;;;;;4975439;28;20426;-67
2022/07/27 11:49:43;;;;;;;5.32;3.30;;;25.10;62.20;;;;;;4974098;28;20408;-67
2022/07/27 11:52:09;;;;;;;7.75;3.40;;;25.10;62.10;;;;;;4974849;28;20384;-67
2022/07/27 11:54:40;;;;;;;4.40;3.38;;;25.10;62.00;;;;;;4975258;28;20436;-67
2022/07/27 11:57:09;;;;;;;5.85;3.47;;;25.10;62.00;;;;;;4975203;28;20423;-68
2022/07/27 11:59:36;;;;;;;4.93;3.20;;;25.10;62.00;;;;;;4986809;28;20433;-67
2022/07/27 12:02:08;;;;;;;4.90;3.30;;;25.10;62.00;;;;;;4993089;28;20538;-69
2022/07/27 12:04:35;;;;;;;6.47;3.30;;;25.10;61.80;;;;;;4994279;28;20469;-68
2022/07/27 12:07:11;;;;;;;8.45;3.70;;;25.10;62.70;;;;;;4993143;28;20391;-67
2022/07/27 12:09:44;;;;;;;8.53;3.60;;;25.20;62.90;;;;;;4993011;28;20497;-67
2022/07/27 12:12:24;;;;;;;6.43;3.45;;;25.20;62.80;;;;;;4992742;28;20386;-67
2022/07/27 12:14:56;;;;;;;8.10;3.50;;;25.20;62.80;;;;;;4993120;28;20430;-68
2022/07/27 12:17:33;;;;;;;6.88;3.40;;;25.20;62.30;;;;;;4994304;28;20398;-68
2022/07/27 12:20:00;;;;;;;7.47;3.33;;;25.20;62.30;;;;;;4992206;28;20430;-69
2022/07/27 12:22:28;;;;;;;6.63;3.10;;;25.20;62.30;;;;;;4993951;28;20876;-67
2022/07/27 12:24:55;;;;;;;6.53;3.15;;;25.20;62.10;;;;;;4993992;28;20920;-67
2022/07/27 12:27:22;;;;;;;5.70;3.20;;;25.20;62.40;;;;;;4992535;28;20417;-67
2022/07/27 12:30:09;;;;;;;7.13;3.38;;;25.20;62.20;;;;;;4994235;28;20398;-67
2022/07/27 12:32:44;;;;;;;7.57;3.00;;;25.20;61.90;;;;;;4994190;28;20389;-67
2022/07/27 12:35:24;;;;;;;5.20;3.10;;;25.20;61.80;;;;;;4993861;28;20479;-67
2022/07/27 12:38:09;;;;;;;3.70;2.95;;;25.20;61.70;;;;;;4993722;28;20398;-67
2022/07/27 12:40:43;;;;;;;4.03;2.63;;;25.20;61.70;;;;;;4992771;28;20544;-67
2022/07/27 12:43:13;;;;;;;4.95;2.97;;;25.20;61.60;;;;;;4993681;28;20394;-67
2022/07/27 12:45:39;;;;;;;4.13;3.03;;;25.20;61.70;;;;;;4994204;28;20746;-69
2022/07/27 12:48:10;;;;;;;4.22;2.92;;;25.20;61.60;;;;;;4993564;28;20379;-67
2022/07/27 12:50:37;;;;;;;4.90;3.10;;;25.20;61.60;;;;;;4993573;28;20881;-67